Tanner, West Virginia
Current Conditions -  °F | °C
As of 3:53 PM on Sunday 23 Nov 2014 (Local Time) from KPKB Reporting Station
Few Clouds Few Clouds  
Wind Chill: 64°   Ceiling: Unl
Heat Index: 64°   Visibility: 10mi
Dew Point: 42°   Wind: 12mph
Humidity: 45%   Direction: 150°SSE
Pressure: 29.82"   Gusts: 21mph
Location:  38.9756°N, 80.9915°W
Report Text: KPKB 232053Z 15010G18KT 10SM FEW100 18/06 A2982 RMK AO2 SLP097 T01780056 56041
Loading
Personal Weather Stations






























Interactive Weather Map New forecast layout! Learn more

10-Day Weather Forecast

Advertisements
Track Severe Weather on mobile